Time;durP1;ratioP1;P1;durP2;ratioP2;P2;SDS_P1;SDS_P2;PMS_P1;PMS_P2;Temp;Humidity;BMP_temperature;BMP_pressure;BME280_temperature;BME280_humidity;BME280_pressure;Samples;Min_cycle;Max_cycle;Signal;HPM_P1;HPM_P2
2024/02/13 07:50:21;;;;;;;25.00;7.38;;;8.90;99.90;;;;;;7406645;19;20003;-82
2024/02/13 07:53:06;;;;;;;16.63;7.60;;;8.90;99.90;;;;;;7389675;19;20018;-82
2024/02/13 07:55:45;;;;;;;14.73;7.40;;;9.00;99.90;;;;;;7386901;19;20246;-80
2024/02/13 07:58:15;;;;;;;20.55;7.63;;;9.00;99.90;;;;;;7389696;19;19999;-80
2024/02/13 08:00:44;;;;;;;14.57;7.83;;;9.10;99.90;;;;;;7391337;19;20023;-80
2024/02/13 08:03:15;;;;;;;15.15;8.15;;;9.20;99.90;;;;;;7408890;19;20014;-81
2024/02/13 08:05:45;;;;;;;;;;;9.20;99.90;;;;;;7391240;19;20009;-81
2024/02/13 08:08:17;;;;;;;19.60;8.70;;;9.30;99.90;;;;;;7390966;19;19914;-81
2024/02/13 08:10:46;;;;;;;19.63;10.57;;;9.20;99.90;;;;;;7391742;19;20033;-81
2024/02/13 08:13:15;;;;;;;55.67;18.98;;;9.30;99.90;;;;;;7390592;19;20007;-82
2024/02/13 08:15:44;;;;;;;39.15;16.25;;;9.40;99.90;;;;;;7388637;19;20010;-81
2024/02/13 08:18:20;;;;;;;38.47;14.88;;;9.40;99.90;;;;;;7408463;19;20003;-81
2024/02/13 08:20:48;;;;;;;44.90;20.10;;;9.40;99.90;;;;;;7390228;19;20003;-79
2024/02/13 08:23:20;;;;;;;33.47;18.25;;;9.50;99.90;;;;;;7388835;19;20411;-78
2024/02/13 08:25:49;;;;;;;26.98;13.82;;;9.50;99.90;;;;;;7390936;19;20421;-77
2024/02/13 08:28:19;;;;;;;24.13;13.05;;;9.50;99.90;;;;;;7387982;19;20380;-80
2024/02/13 08:30:48;;;;;;;20.23;9.82;;;9.50;99.90;;;;;;7386331;19;20421;-78
2024/02/13 08:33:22;;;;;;;24.63;9.95;;;9.60;99.90;;;;;;7408461;19;20002;-78
2024/02/13 08:35:53;;;;;;;15.00;9.15;;;9.60;99.90;;;;;;7388830;19;20007;-78
2024/02/13 08:38:21;;;;;;;19.73;8.07;;;9.70;99.90;;;;;;7389578;19;20007;-78
2024/02/13 08:44:27;;;;;;;34.50;10.95;;;9.80;99.90;;;;;;7356662;19;20028;-79
2024/02/13 08:46:56;;;;;;;26.60;11.75;;;9.90;99.90;;;;;;7398478;19;20024;-77
2024/02/13 08:49:28;;;;;;;26.10;12.02;;;10.00;99.90;;;;;;7376988;19;20006;-77
2024/02/13 08:52:22;;;;;;;19.90;11.35;;;10.00;99.90;;;;;;7383409;19;20074;-80
2024/02/13 08:54:51;;;;;;;23.30;11.65;;;10.10;99.90;;;;;;7385296;19;20014;-80
2024/02/13 09:16:44;;;;;;;21.20;12.30;;;10.60;99.90;;;;;;7425157;19;20023;-82
2024/02/13 09:19:26;;;;;;;24.92;11.18;;;10.70;99.90;;;;;;7427516;19;20019;-84
2024/02/13 09:21:56;;;;;;;21.00;11.00;;;10.70;99.90;;;;;;7419058;19;20006;-81
2024/02/13 09:24:27;;;;;;;28.40;12.73;;;10.80;99.90;;;;;;7439533;19;20027;-82
2024/02/13 09:26:59;;;;;;;30.98;12.98;;;10.80;99.90;;;;;;7423610;19;20006;-81
2024/02/13 09:29:29;;;;;;;28.48;12.90;;;10.90;99.90;;;;;;7421354;19;20096;-82
2024/02/13 09:32:01;;;;;;;22.10;10.88;;;10.90;99.90;;;;;;7422313;19;20010;-80
2024/02/13 09:34:35;;;;;;;;;;;10.90;99.90;;;;;;7424830;19;20240;-82
2024/02/13 09:37:04;;;;;;;18.70;8.77;;;11.00;99.90;;;;;;7419165;19;20276;-81
2024/02/13 09:39:32;;;;;;;24.17;10.57;;;11.00;99.90;;;;;;7415862;19;20014;-79
2024/02/13 09:42:03;;;;;;;16.38;10.10;;;11.00;99.90;;;;;;7441921;19;20349;-79
2024/02/13 09:44:32;;;;;;;25.00;10.00;;;11.00;99.90;;;;;;7417320;19;20020;-79
2024/02/13 09:47:05;;;;;;;18.00;9.25;;;11.00;99.90;;;;;;7417291;19;20003;-81
2024/02/13 09:49:35;;;;;;;13.82;8.15;;;11.00;99.90;;;;;;7420780;19;20010;-79
2024/02/13 09:52:12;;;;;;;21.98;9.80;;;11.00;99.90;;;;;;7418741;19;20003;-78
2024/02/13 09:54:44;;;;;;;16.80;9.63;;;11.10;99.90;;;;;;7420165;19;20019;-80
2024/02/13 09:57:13;;;;;;;20.88;9.93;;;11.10;99.90;;;;;;7442299;19;20377;-78
2024/02/13 09:59:42;;;;;;;20.75;10.23;;;11.10;99.90;;;;;;7415414;19;20017;-78
2024/02/13 10:02:16;;;;;;;19.88;9.73;;;11.10;99.90;;;;;;7416907;19;20067;-77
2024/02/13 10:04:45;;;;;;;23.48;9.70;;;11.20;99.90;;;;;;7421128;19;20019;-77
2024/02/13 10:07:14;;;;;;;25.15;9.98;;;11.20;99.90;;;;;;7422067;19;20015;-79
2024/02/13 10:09:44;;;;;;;21.80;9.68;;;11.20;99.90;;;;;;7414510;19;20006;-77
2024/02/13 10:12:14;;;;;;;21.58;10.60;;;11.30;99.90;;;;;;7437790;19;20030;-78
2024/02/13 10:14:43;;;;;;;17.23;8.82;;;11.30;99.90;;;;;;7421778;19;20322;-78
2024/02/13 10:17:14;;;;;;;19.40;9.27;;;11.20;99.90;;;;;;7422280;19;20341;-79
2024/02/13 10:19:44;;;;;;;;;;;11.20;99.90;;;;;;7424634;19;20034;-79
2024/02/13 10:25:09;;;;;;;18.83;8.85;;;11.20;99.90;;;;;;7387055;19;20007;-78
2024/02/13 10:27:37;;;;;;;16.25;8.82;;;11.20;99.90;;;;;;7388308;19;20007;-79
2024/02/13 10:38:23;;;;;;;8.80;3.95;;;11.10;99.90;;;;;;7380345;19;20023;-82
2024/02/13 10:40:57;;;;;;;6.72;3.60;;;11.00;99.90;;;;;;7388259;19;20014;-78
2024/02/13 10:43:28;;;;;;;11.02;4.35;;;11.00;99.90;;;;;;7391023;19;20002;-80
2024/02/13 10:46:38;;;;;;;6.55;3.60;;;11.00;99.90;;;;;;7391710;19;20010;-79
2024/02/13 10:49:53;;;;;;;7.93;4.10;;;11.00;99.90;;;;;;7365798;19;20011;-82
2024/02/13 10:58:46;;;;;;;6.95;3.47;;;10.90;99.90;;;;;;7389402;19;20021;-80
2024/02/13 11:01:34;;;;;;;9.80;2.72;;;11.00;99.90;;;;;;7414824;19;20015;-84
2024/02/13 11:04:57;;;;;;;11.88;2.88;;;11.10;99.90;;;;;;7393462;19;20003;-87
2024/02/13 11:11:11;;;;;;;6.60;2.85;;;11.20;99.90;;;;;;7388203;19;20006;-83
2024/02/13 11:13:40;;;;;;;13.73;3.53;;;11.30;99.90;;;;;;7386102;19;20064;-77
2024/02/13 11:16:10;;;;;;;12.00;2.67;;;11.20;99.90;;;;;;7385080;19;20029;-77
2024/02/13 11:18:47;;;;;;;7.38;2.72;;;11.30;99.90;;;;;;7380417;19;20010;-76
2024/02/13 11:21:21;;;;;;;3.55;2.40;;;11.10;99.90;;;;;;7404589;19;20023;-77
2024/02/13 11:23:54;;;;;;;7.47;2.28;;;10.90;99.90;;;;;;7384644;19;20062;-78
2024/02/13 11:26:26;;;;;;;3.85;2.22;;;10.90;99.90;;;;;;7389580;19;20007;-79
2024/02/13 11:28:55;;;;;;;5.18;2.33;;;10.90;99.90;;;;;;7389139;19;20039;-79
2024/02/13 11:31:26;;;;;;;10.20;2.63;;;11.10;99.90;;;;;;7388854;19;20003;-81
2024/02/13 11:34:13;;;;;;;7.65;2.65;;;11.20;99.90;;;;;;7396556;19;20006;-82
2024/02/13 11:39:31;;;;;;;7.22;2.40;;;11.30;99.90;;;;;;7420153;19;20011;-80
2024/02/13 11:42:04;;;;;;;8.30;2.30;;;11.40;99.90;;;;;;7387759;19;20002;-84
2024/02/13 11:44:36;;;;;;;4.68;2.05;;;11.40;99.90;;;;;;7385145;19;19998;-80
2024/02/13 11:47:06;;;;;;;4.45;2.33;;;11.50;99.90;;;;;;7389451;19;20026;-79
2024/02/13 11:49:35;;;;;;;6.18;2.22;;;11.50;99.90;;;;;;7385142;19;20232;-79
2024/02/13 11:52:04;;;;;;;4.97;2.05;;;11.60;99.90;;;;;;7386193;19;20021;-78
2024/02/13 11:54:35;;;;;;;10.80;2.80;;;11.60;99.90;;;;;;7404565;19;20017;-79
2024/02/13 11:57:07;;;;;;;2.83;1.92;;;11.40;99.90;;;;;;7382092;19;20034;-77
2024/02/13 11:59:36;;;;;;;6.82;2.28;;;11.50;99.90;;;;;;7387201;19;20006;-77
2024/02/13 12:02:06;;;;;;;5.07;2.47;;;11.50;99.90;;;;;;7389270;19;20062;-76
2024/02/13 12:04:35;;;;;;;6.00;2.03;;;11.50;99.90;;;;;;7388875;19;20009;-77
2024/02/13 12:07:07;;;;;;;6.15;2.60;;;11.50;99.90;;;;;;7392498;19;20043;-77
2024/02/13 12:12:44;;;;;;;8.10;2.75;;;11.60;99.90;;;;;;7297185;19;2004358;-81
2024/02/13 12:15:15;;;;;;;4.70;2.55;;;11.50;99.90;;;;;;7409852;19;20011;-80
2024/02/13 12:17:56;;;;;;;8.98;2.88;;;11.60;99.90;;;;;;7388488;19;20036;-80
2024/02/13 12:20:28;;;;;;;11.88;4.00;;;11.60;99.90;;;;;;7388544;19;20365;-80
2024/02/13 12:22:58;;;;;;;5.78;3.42;;;11.80;99.90;;;;;;7387401;19;20002;-81
2024/02/13 12:25:27;;;;;;;11.85;4.35;;;11.80;99.90;;;;;;7386234;19;20010;-82
2024/02/13 12:28:05;;;;;;;10.93;3.67;;;11.90;99.90;;;;;;7388446;19;20042;-80
2024/02/13 12:30:34;;;;;;;9.32;3.95;;;12.00;99.90;;;;;;7403870;19;20385;-80
2024/02/13 12:33:07;;;;;;;7.13;4.35;;;12.00;99.90;;;;;;7381508;19;20014;-81
2024/02/13 12:35:37;;;;;;;6.68;4.25;;;11.90;99.90;;;;;;7385723;19;20026;-79
2024/02/13 12:38:14;;;;;;;10.98;4.63;;;12.00;99.90;;;;;;7382336;19;20066;-80
2024/02/13 12:40:43;;;;;;;10.70;5.10;;;11.90;99.90;;;;;;7381044;19;20011;-81
2024/02/13 12:43:18;;;;;;;9.23;3.80;;;11.90;99.90;;;;;;7381679;19;20010;-81
2024/02/13 12:46:02;;;;;;;11.52;5.18;;;12.00;99.90;;;;;;7383578;19;20353;-81
2024/02/13 12:48:32;;;;;;;9.80;4.75;;;12.00;99.90;;;;;;7404298;19;20003;-76
2024/02/13 12:51:02;;;;;;;6.78;4.60;;;11.90;99.90;;;;;;7382821;19;20027;-80
2024/02/13 12:53:33;;;;;;;10.45;4.68;;;12.10;99.90;;;;;;7381558;19;20231;-80
2024/02/13 12:56:03;;;;;;;6.30;4.57;;;12.00;99.90;;;;;;7383051;19;20016;-77
2024/02/13 12:58:35;;;;;;;8.70;4.75;;;12.00;99.90;;;;;;7384598;19;20011;-82
2024/02/13 13:04:08;;;;;;;10.32;4.72;;;11.50;99.90;;;;;;7390428;19;20011;-83
2024/02/13 13:06:47;;;;;;;10.90;4.47;;;11.60;99.90;;;;;;7412224;19;20015;-84
2024/02/13 13:09:19;;;;;;;7.05;3.95;;;11.80;99.90;;;;;;7384457;19;20006;-81
2024/02/13 13:11:49;;;;;;;8.73;3.75;;;11.80;99.90;;;;;;7380613;19;19999;-80
2024/02/13 13:14:20;;;;;;;11.60;4.07;;;11.90;99.90;;;;;;7382192;19;20007;-76
2024/02/13 13:16:49;;;;;;;11.90;4.07;;;11.80;99.90;;;;;;7382059;19;20393;-76
2024/02/13 13:19:20;;;;;;;113.18;47.08;;;11.80;99.90;;;;;;7384469;19;20016;-79
2024/02/13 13:21:51;;;;;;;7.28;4.25;;;11.90;99.90;;;;;;7384250;19;20010;-78
2024/02/13 13:24:19;;;;;;;4.60;3.03;;;12.00;99.90;;;;;;7402545;19;20018;-76
2024/02/13 13:26:50;;;;;;;8.05;3.50;;;12.20;99.90;;;;;;7380206;19;20313;-76
2024/02/13 13:29:22;;;;;;;5.22;2.75;;;12.20;99.90;;;;;;7379725;19;20082;-75
2024/02/13 13:31:51;;;;;;;8.98;3.65;;;12.30;99.90;;;;;;7378757;19;20007;-75
2024/02/13 13:34:22;;;;;;;7.32;2.55;;;12.40;99.90;;;;;;7380039;19;20016;-76
2024/02/13 13:36:52;;;;;;;5.23;2.70;;;12.40;99.90;;;;;;7382331;19;20007;-78
2024/02/13 13:39:28;;;;;;;6.50;2.40;;;12.40;99.90;;;;;;7404850;19;20018;-77
2024/02/13 13:41:57;;;;;;;4.45;2.40;;;12.40;99.90;;;;;;7384385;19;20079;-79
2024/02/13 13:47:59;;;;;;;7.88;3.17;;;12.60;99.90;;;;;;7399485;19;20006;-80
2024/02/13 13:50:39;;;;;;;5.22;2.97;;;12.60;99.90;;;;;;7381021;19;20027;-83
2024/02/13 13:53:14;;;;;;;4.35;2.33;;;12.80;99.90;;;;;;7389408;19;20011;-83
2024/02/13 13:55:43;;;;;;;7.05;2.38;;;12.80;99.90;;;;;;7383172;19;20007;-80
2024/02/13 13:58:12;;;;;;;6.28;2.20;;;12.50;99.90;;;;;;7384145;19;20015;-77
2024/02/13 14:00:43;;;;;;;4.68;2.35;;;12.60;99.90;;;;;;7405223;19;20006;-76
2024/02/13 14:03:14;;;;;;;3.78;2.10;;;12.80;99.90;;;;;;7383538;19;20025;-75
2024/02/13 14:05:44;;;;;;;7.43;2.28;;;12.90;99.90;;;;;;7383631;19;20057;-76
2024/02/13 14:08:12;;;;;;;6.32;2.05;;;13.20;99.90;;;;;;7383927;19;20006;-77
2024/02/13 14:10:41;;;;;;;4.15;2.47;;;13.20;99.90;;;;;;7384068;19;20015;-78
2024/02/13 14:13:10;;;;;;;5.65;2.05;;;13.10;99.90;;;;;;7388345;19;20067;-77
2024/02/13 14:15:39;;;;;;;7.65;2.28;;;13.10;99.90;;;;;;7411421;19;20010;-79
2024/02/13 14:18:09;;;;;;;7.57;2.80;;;13.10;99.90;;;;;;7389383;19;20345;-79
2024/02/13 14:20:41;;;;;;;5.10;2.17;;;13.10;99.90;;;;;;7386578;19;20017;-79
2024/02/13 14:23:11;;;;;;;7.60;2.75;;;13.00;99.90;;;;;;7384655;19;20224;-76
2024/02/13 14:25:40;;;;;;;4.00;2.20;;;12.90;99.90;;;;;;7388787;19;20011;-77
2024/02/13 14:28:12;;;;;;;5.43;2.55;;;12.90;99.90;;;;;;7386676;19;20055;-79
2024/02/13 14:30:42;;;;;;;5.38;2.45;;;12.80;99.90;;;;;;7410149;19;20258;-79
2024/02/13 14:33:11;;;;;;;3.08;2.25;;;12.80;99.90;;;;;;7384896;19;20013;-78
2024/02/13 14:35:46;;;;;;;4.70;2.17;;;12.80;99.90;;;;;;7389773;19;20006;-80
2024/02/13 14:38:17;;;;;;;4.47;2.35;;;12.80;99.90;;;;;;7388729;19;20011;-81
2024/02/13 14:40:46;;;;;;;7.20;2.53;;;12.80;99.90;;;;;;7389141;19;20002;-80
2024/02/13 14:43:15;;;;;;;4.18;2.17;;;12.60;99.90;;;;;;7390005;19;20028;-80
2024/02/13 14:45:45;;;;;;;6.63;2.78;;;12.70;99.90;;;;;;7418706;19;20006;-80
2024/02/13 14:48:15;;;;;;;5.85;2.33;;;12.50;99.90;;;;;;7398090;19;20006;-80
2024/02/13 14:50:47;;;;;;;3.00;2.05;;;12.50;99.90;;;;;;7400133;19;20007;-79
2024/02/13 14:53:20;;;;;;;12.23;2.80;;;12.60;99.90;;;;;;7400842;19;20019;-78
2024/02/13 14:55:48;;;;;;;9.18;2.40;;;12.70;99.90;;;;;;7401397;19;20011;-81
2024/02/13 14:58:18;;;;;;;7.10;2.70;;;12.70;99.90;;;;;;7398978;19;20007;-80
2024/02/13 15:00:49;;;;;;;4.00;2.33;;;12.70;99.90;;;;;;7412269;19;20030;-81
2024/02/13 15:03:18;;;;;;;5.03;2.30;;;12.80;99.90;;;;;;7386824;19;20346;-80
2024/02/13 15:05:49;;;;;;;4.43;2.60;;;12.80;99.90;;;;;;7388816;19;20006;-79
2024/02/13 15:08:19;;;;;;;6.60;2.78;;;12.80;99.90;;;;;;7389554;19;20277;-80
2024/02/13 15:10:48;;;;;;;8.70;2.80;;;12.80;99.90;;;;;;7390670;19;20002;-80
2024/02/13 15:13:18;;;;;;;4.47;2.72;;;12.80;99.90;;;;;;7389224;19;20345;-80
2024/02/13 15:15:50;;;;;;;6.85;3.13;;;12.90;99.90;;;;;;7409258;19;20007;-80
2024/02/13 15:18:19;;;;;;;7.53;3.25;;;12.90;99.90;;;;;;7387857;19;20101;-79
2024/02/13 15:20:53;;;;;;;;;;;12.90;99.90;;;;;;7389397;19;20002;-80
2024/02/13 15:23:26;;;;;;;5.13;2.72;;;12.80;99.90;;;;;;7387030;19;19911;-79
2024/02/13 15:25:55;;;;;;;7.85;3.17;;;12.90;99.90;;;;;;7386997;19;20011;-80
2024/02/13 15:28:25;;;;;;;5.75;2.75;;;12.80;99.90;;;;;;7385596;19;20042;-80
2024/02/13 15:30:54;;;;;;;6.10;2.20;;;12.70;99.90;;;;;;7405585;19;20007;-80
2024/02/13 15:33:25;;;;;;;10.80;2.70;;;12.70;99.90;;;;;;7383553;19;20349;-81
2024/02/13 15:36:05;;;;;;;7.28;2.97;;;12.80;99.90;;;;;;7385812;19;20023;-79
2024/02/13 15:47:12;;;;;;;6.15;2.20;;;12.50;99.90;;;;;;7390919;19;20011;-83
2024/02/13 15:49:45;;;;;;;4.97;3.00;;;12.50;99.90;;;;;;7386285;19;20391;-82
2024/02/13 15:52:32;;;;;;;9.10;2.67;;;12.50;99.90;;;;;;7387298;19;20002;-82
2024/02/13 15:55:01;;;;;;;6.65;2.70;;;12.40;99.90;;;;;;7388654;19;20099;-80
2024/02/13 15:57:36;;;;;;;7.25;2.85;;;12.50;99.90;;;;;;7407362;19;20015;-83
2024/02/13 16:00:08;;;;;;;9.20;2.53;;;12.60;99.90;;;;;;7384920;19;20011;-83
2024/02/13 16:05:35;;;;;;;9.68;2.40;;;12.50;99.90;;;;;;7386680;19;19915;-80
2024/02/13 16:09:03;;;;;;;6.45;2.20;;;12.50;99.90;;;;;;7408949;19;20822;-85
2024/02/13 16:14:23;;;;;;;5.32;2.78;;;12.60;99.90;;;;;;7383104;19;20398;-78
2024/02/13 16:16:52;;;;;;;4.15;2.33;;;12.60;99.90;;;;;;7383498;19;20099;-78
2024/02/13 16:19:26;;;;;;;3.83;2.38;;;12.60;99.90;;;;;;7381662;19;20079;-82
2024/02/13 16:21:55;;;;;;;4.63;2.15;;;12.60;99.90;;;;;;7400338;19;20007;-78
2024/02/13 16:24:25;;;;;;;5.43;2.25;;;12.60;99.90;;;;;;7403970;19;20036;-79
2024/02/13 16:27:00;;;;;;;6.32;2.95;;;12.60;99.90;;;;;;7391655;19;20397;-82
2024/02/13 16:29:30;;;;;;;4.07;2.08;;;12.60;99.90;;;;;;7386300;19;20011;-79
2024/02/13 16:32:00;;;;;;;6.25;2.20;;;12.70;99.90;;;;;;7385031;19;20007;-79
2024/02/13 16:43:07;;;;;;;7.93;2.43;;;12.60;99.90;;;;;;7276924;19;2004545;-77
2024/02/13 16:45:36;;;;;;;3.22;2.17;;;12.60;99.90;;;;;;7399905;19;20011;-77
2024/02/13 16:48:05;;;;;;;9.45;2.05;;;12.60;99.90;;;;;;7380427;19;20062;-76
2024/02/13 16:50:34;;;;;;;4.38;2.00;;;12.60;99.90;;;;;;7378672;19;20003;-76
2024/02/13 16:53:04;;;;;;;6.80;2.10;;;12.60;99.90;;;;;;7377268;19;20070;-77
2024/02/13 16:55:33;;;;;;;4.80;2.10;;;12.60;99.90;;;;;;7377666;19;20014;-76
2024/02/13 16:58:03;;;;;;;4.00;1.90;;;12.60;99.90;;;;;;7378455;19;20125;-75
2024/02/13 17:00:36;;;;;;;2.30;2.00;;;12.60;99.90;;;;;;7398884;19;20003;-75
2024/02/13 17:03:05;;;;;;;7.82;2.40;;;12.60;99.90;;;;;;7381601;19;20032;-80
2024/02/13 17:05:39;;;;;;;3.60;2.22;;;12.60;99.90;;;;;;7381930;19;20074;-83
2024/02/13 17:08:09;;;;;;;4.03;2.30;;;12.60;99.90;;;;;;7385010;19;20032;-80
2024/02/13 17:13:28;;;;;;;6.78;2.55;;;12.60;99.90;;;;;;7389794;19;20243;-85
2024/02/13 17:15:59;;;;;;;5.60;2.50;;;12.60;99.90;;;;;;7387851;19;20543;-78
2024/02/13 17:18:30;;;;;;;4.85;2.38;;;12.60;99.90;;;;;;7404046;19;20023;-78
2024/02/13 17:21:22;;;;;;;5.15;2.30;;;12.60;99.90;;;;;;7385887;19;20003;-81
2024/02/13 17:23:51;;;;;;;8.15;2.45;;;12.60;99.90;;;;;;7379201;19;20094;-76
2024/02/13 17:26:25;;;;;;;7.38;2.30;;;12.60;99.90;;;;;;7382310;19;20011;-78
2024/02/13 17:28:54;;;;;;;4.57;2.35;;;12.60;99.90;;;;;;7380263;19;20109;-77
2024/02/13 17:31:27;;;;;;;10.63;2.78;;;12.60;99.90;;;;;;7387088;19;20028;-80
2024/02/13 17:38:13;;;;;;;17.48;7.88;;;12.50;99.90;;;;;;7417483;19;20009;-80
2024/02/13 17:47:04;;;;;;;6.60;2.85;;;12.60;99.90;;;;;;7392973;19;20255;-76
2024/02/13 17:49:36;;;;;;;5.93;2.95;;;12.60;99.90;;;;;;7389114;19;20010;-77
2024/02/13 17:52:13;;;;;;;6.45;2.70;;;12.60;99.90;;;;;;7391312;19;20018;-78
2024/02/13 17:55:15;;;;;;;;;;;;;;;;;;;;;
2024/02/13 18:14:41;;;;;;;5.65;3.22;;;12.50;99.90;;;;;;7424265;19;20440;-85
2024/02/13 18:26:44;;;;;;;11.05;5.72;;;12.60;99.90;;;;;;7443718;19;20042;-82
2024/02/13 18:56:10;;;;;;;7.88;2.10;;;12.50;99.90;;;;;;7419999;19;20010;-82
2024/02/13 18:59:03;;;;;;;;;;;;;;;;;;;;;
2024/02/13 19:05:06;;;;;;;;;;;;;;;;;;;;;
2024/02/13 19:07:59;;;;;;;5.22;1.80;;;12.60;99.90;;;;;;7421085;19;20061;-82
2024/02/13 19:11:00;;;;;;;;;;;;;;;;;;;;;
2024/02/13 19:13:44;;;;;;;4.13;2.50;;;12.50;99.90;;;;;;7445960;19;20009;-80
2024/02/13 19:16:23;;;;;;;6.10;2.38;;;12.60;99.90;;;;;;7427116;19;20003;-80
2024/02/13 19:19:35;;;;;;;4.28;2.13;;;12.60;99.90;;;;;;7448560;19;20017;-80
2024/02/13 19:22:16;;;;;;;;;;;;;;;;;;;;;
2024/02/13 19:25:02;;;;;;;;;;;;;;;;;;;;;
2024/02/13 19:27:43;;;;;;;;;;;;;;;;;;;;;
2024/02/13 19:30:28;;;;;;;;;;;;;;;;;;;;;
2024/02/13 19:33:21;;;;;;;4.15;2.33;;;12.50;99.90;;;;;;7420032;19;20003;-78
2024/02/13 19:35:58;;;;;;;5.30;2.38;;;12.60;99.90;;;;;;7422866;19;20002;-79
2024/02/13 19:38:41;;;;;;;7.25;2.65;;;12.70;99.90;;;;;;7421953;19;20007;-80
2024/02/13 19:41:22;;;;;;;;;;;;;;;;;;;;;
2024/02/13 19:44:18;;;;;;;4.03;2.15;;;12.60;99.90;;;;;;7442308;19;20013;-80
2024/02/13 19:47:10;;;;;;;7.07;2.15;;;12.60;99.90;;;;;;7418946;19;20032;-80
2024/02/13 19:49:54;;;;;;;;;;;;;;;;;;;;;
2024/02/13 19:52:50;;;;;;;6.65;2.38;;;12.70;99.90;;;;;;7425831;19;20004;-81
2024/02/13 19:55:37;;;;;;;;;;;;;;;;;;;;;
2024/02/13 19:58:54;;;;;;;;;;;;;;;;;;;;;
2024/02/13 20:02:18;;;;;;;;;;;;;;;;;;;;;
2024/02/13 20:04:59;;;;;;;;;;;;;;;;;;;;;
2024/02/13 20:07:39;;;;;;;;;;;;;;;;;;;;;
2024/02/13 20:10:53;;;;;;;;;;;;;;;;;;;;;
2024/02/13 20:20:33;;;;;;;5.97;2.47;;;12.50;99.90;;;;;;7389173;19;20010;-83
2024/02/13 20:26:55;;;;;;;6.15;2.28;;;12.60;99.90;;;;;;7413855;19;20014;-83
2024/02/13 20:39:50;;;;;;;7.40;1.85;;;12.50;99.90;;;;;;7422754;19;20348;-82
2024/02/13 20:42:35;;;;;;;;;;;;;;;;;;;;;
2024/02/13 20:48:49;;;;;;;;;;;;;;;;;;;;;
2024/02/13 20:51:36;;;;;;;;;;;12.40;99.90;;;;;;7447461;19;20028;-82
2024/02/13 20:54:32;;;;;;;;;;;;;;;;;;;;;
2024/02/13 21:00:45;;;;;;;;;;;;;;;;;;;;;
2024/02/13 21:03:41;;;;;;;6.82;2.72;;;12.40;99.90;;;;;;7422544;19;19998;-81
2024/02/13 21:06:44;;;;;;;;;;;;;;;;;;;;;
2024/02/13 21:30:18;;;;;;;7.72;2.92;;;12.30;99.90;;;;;;4929921;19;20548035;-82
2024/02/13 21:33:07;;;;;;;22.02;9.90;;;12.20;99.90;;;;;;7422952;19;20037;-83
2024/02/13 21:35:49;;;;;;;5.88;3.03;;;12.20;99.90;;;;;;7450000;19;20014;-82
2024/02/13 21:38:49;;;;;;;;;;;;;;;;;;;;;
2024/02/13 21:41:32;;;;;;;;;;;;;;;;;;;;;
2024/02/13 21:44:51;;;;;;;;;;;;;;;;;;;;;
2024/02/13 21:47:49;;;;;;;11.18;3.33;;;12.40;99.90;;;;;;7423141;19;20090;-81
2024/02/13 21:54:06;;;;;;;;;;;;;;;;;;;;;
2024/02/13 22:03:07;;;;;;;9.10;3.78;;;12.40;99.90;;;;;;7421628;19;20015;-82
2024/02/13 22:06:23;;;;;;;;;;;;;;;;;;;;;
2024/02/13 22:19:38;;;;;;;;;;;;;;;;;;;;;
2024/02/13 22:26:38;;;;;;;;;;;;;;;;;;;;;
